Conejos, Valles Caldera, New Mexico Weather observations

Data are for 10 minute period ending at time listed.
 Day   Time   Solar   Ave.   Ave.  Ave.  Vector  Max.   Baro.   Total    
  of    of     Rad.   Air    Rel.  Wind   Wind   Wind  Press.  Precip.   
Year   Day            Temp.  Hum.  Speed  Dir.   Gust                    
2017   (MST)  Kw/m2    F      %     mph   deg.    mph    mb.     in.     
-------------------------------------------------------------------------
 148   19:30   0.00   49.9    36    0.0   175     1.2   99999.0    0.00 
 148   19:40   0.00   48.8    37    0.3   231     1.8   99999.0    0.00 
 148   19:50   0.00   48.0    37    0.1   198     1.2   99999.0    0.00 
 148   20:00   0.00   47.3    38    0.1   159     1.2   99999.0    0.00 
 148   20:10   0.00   47.2    37    0.6   131     1.8   99999.0    0.00 
 148   20:20   0.00   49.3    33    1.1   176     2.4   99999.0    0.00 
 148   20:30   0.00   50.2    31    1.1   148     1.8   99999.0    0.00 
 148   20:40   0.00   50.2    30    0.1   122     1.2   99999.0    0.00 
 148   20:50   0.00   49.1    32    0.0     0     0.0   99999.0    0.00 
 148   21:00   0.00   47.5    34    0.0   135     1.2   99999.0    0.00 
 148   21:10   0.00   46.3    36    1.2   146     3.0   99999.0    0.00 
 148   21:20   0.00   46.7    36    1.4   155     3.6   99999.0    0.00 
 148   21:30   0.00   48.8    33    1.7   159     3.0   99999.0    0.00 
 148   21:40   0.00   49.7    32    2.4   157     4.8   99999.0    0.00 
 148   21:50   0.00   51.4    31    3.7   153     9.0   99999.0    0.00 
 148   22:00   0.00   53.3    29    3.3   140     8.4   99999.0    0.00 
 148   22:10   0.00   52.8    30    4.1   137     9.0   99999.0    0.00 
 148   22:20   0.00   52.0    32    3.5   128     7.2   99999.0    0.00 
 148   22:30   0.00   51.1    32    3.4   147     8.4   99999.0    0.00 
 148   22:40   0.00   50.4    34    3.5   156     7.8   99999.0    0.00 
 148   22:50   0.00   49.9    35    2.9   153     6.0   99999.0    0.00 
 148   23:00   0.00   49.3    36    2.3   161     4.2   99999.0    0.00 
 148   23:10   0.00   47.8    39    2.2   154     4.8   99999.0    0.00 
 148   23:20   0.00   48.1    40    2.1   155     6.0   99999.0    0.00 
 148   23:30   0.00   47.9    41    2.2   162     4.8   99999.0    0.00 
 148   23:40   0.00   48.1    42    2.4   165     4.8   99999.0    0.00 
 148   23:50   0.00   48.3    42    2.1   175     3.6   99999.0    0.00 
 149    0:00   0.00   48.1    43    2.4   174     4.2   99999.0    0.00 
 149    0:10   0.00   48.0    44    3.0   161     7.2   99999.0    0.00 
 149    0:20   0.00   47.5    45    3.1   161     6.0   99999.0    0.00 
 149    0:30   0.00   47.1    46    2.9   149     6.6   99999.0    0.00 
 149    0:40   0.00   47.4    47    2.9   158     4.8   99999.0    0.00 
 149    0:50   0.00   47.6    48    3.4   151     7.2   99999.0    0.00 
 149    1:00   0.00   47.8    50    3.0   130     6.6   99999.0    0.00 
 149    1:10   0.00   47.9    50    3.0   140     9.6   99999.0    0.00 
 149    1:20   0.00   47.6    50    2.5   131     4.8   99999.0    0.00 
 149    1:30   0.00   47.7    50    2.9   134     6.6   99999.0    0.00 
 149    1:40   0.00   47.6    49    3.2   119     6.0   99999.0    0.00 
 149    1:50   0.00   47.2    48    2.9   117     6.0   99999.0    0.00 
 149    2:00   0.00   46.9    47    3.0   136     5.4   99999.0    0.00 
 149    2:10   0.00   46.7    46    3.3   162     6.0   99999.0    0.00 
 149    2:20   0.00   46.4    46    3.4   159     6.6   99999.0    0.00 
 149    2:30   0.00   46.1    46    3.1   170     5.4   99999.0    0.00 
 149    2:40   0.00   46.2    47    1.7   166     3.6   99999.0    0.00 
 149    2:50   0.00   46.2    46    2.3   176     4.2   99999.0    0.00 
 149    3:00   0.00   46.2    46    2.1   172     7.8   99999.0    0.00 
 149    3:10   0.00   46.3    46    2.0   157     3.6   99999.0    0.00 
 149    3:20   0.00   46.1    46    2.5   171     4.2   99999.0    0.00 
 149    3:30   0.00   45.9    46    1.7   251     3.0   99999.0    0.00 
 149    3:40   0.00   45.6    47    2.1   169     4.2   99999.0    0.00 
 149    3:50   0.00   45.7    47    2.3    91     5.4   99999.0    0.00 
 149    4:00   0.00   45.8    47    2.0   104     4.2   99999.0    0.00 
 149    4:10   0.00   45.7    47    2.2   168     4.2   99999.0    0.00 
 149    4:20   0.00   45.4    48    1.9   182     3.0   99999.0    0.00 
 149    4:30   0.00   45.2    49    1.9   159     3.6   99999.0    0.00 
 149    4:40   0.00   44.9    50    2.2   183     3.0   99999.0    0.00 
 149    4:50   0.00   44.5    51    2.4   160     4.8   99999.0    0.00 
 149    5:00   0.00   44.3    52    3.5   170     5.4   99999.0    0.00 
 149    5:10   0.00   44.2    52    3.2   173     5.4   99999.0    0.00 
 149    5:20   0.01   44.2    53    2.9   166     6.0   99999.0    0.00 
 149    5:30   0.01   44.5    54    2.6   164     5.4   99999.0    0.00 
 149    5:40   0.02   44.7    54    2.2   167     4.8   99999.0    0.00 
 149    5:50   0.02   44.9    55    2.5   176     4.2   99999.0    0.00 
 149    6:00   0.04   45.3    55    3.2   170     5.4   99999.0    0.00 
 149    6:10   0.05   45.7    55    2.6   167     6.0   99999.0    0.00 
 149    6:20   0.05   46.5    54    2.0   180     5.4   99999.0    0.00 
 149    6:30   0.04   47.4    53    2.3   178     3.6   99999.0    0.00 
 149    6:40   0.05   48.0    52    2.0   163     3.6   99999.0    0.00 
 149    6:50   0.06   49.2    50    1.6   121     3.6   99999.0    0.00 
 149    7:00   0.05   49.9    50    1.9   150     3.6   99999.0    0.00 
 149    7:10   0.05   51.0    46    1.1   121     4.2   99999.0    0.00 
 149    7:20   0.22   51.9    45    1.7   148     3.0   99999.0    0.00 
 149    7:30   0.12   52.3    43    3.0   148     6.0   99999.0    0.00 
 149    7:40   0.23   52.5    43    3.3   165     6.6   99999.0    0.00 
 149    7:50   0.17   52.9    42    3.1   135     5.4   99999.0    0.00 
 149    8:00   0.40   53.5    41    2.6   122     5.4   99999.0    0.00 
 149    8:10   0.51   53.6    40    3.6   159     7.8   99999.0    0.00 
 149    8:20   0.53   53.7    40    3.3   154     7.2   99999.0    0.00 
 149    8:30   0.55   54.5    39    4.2   173    10.2   99999.0    0.00 
 149    8:40   0.57   55.2    38    3.9   167     9.0   99999.0    0.00 
 149    8:50   0.60   56.2    37    3.8   162     7.2   99999.0    0.00 
 149    9:00   0.63   56.5    36    4.4   148    10.2   99999.0    0.00 
 149    9:10   0.65   56.2    37    5.3   167    13.1   99999.0    0.00 
 149    9:20   0.67   56.7    36    5.2   149    11.9   99999.0    0.00 
 149    9:30   0.69   57.5    36    4.9   150    11.9   99999.0    0.00 
 149    9:40   0.71   57.9    34    4.8   165    11.3   99999.0    0.00 
 149    9:50   0.73   58.0    34    6.0   181    11.3   99999.0    0.00 
 149   10:00   0.74   58.4    34    5.6   159    10.8   99999.0    0.00 
 149   10:10   0.76   59.0    33    5.2   150    11.9   99999.0    0.00 
 149   10:20   0.78   60.2    32    4.7   154    11.9   99999.0    0.00 
 149   10:30   0.82   59.9    32    6.3   159    15.5   99999.0    0.00 
 149   10:40   0.82   60.7    31    6.5   173    12.5   99999.0    0.00 
 149   10:50   0.83   60.2    31    6.0   166    13.7   99999.0    0.00 
 149   11:00   0.86   60.9    31    6.2   165    13.7   99999.0    0.00 
 149   11:10   0.49   60.7    31    6.8   175    18.5   99999.0    0.00 
 149   11:20   0.75   59.6    31    5.1   180    10.2   99999.0    0.00 
 149   11:30   0.42   60.2    31    5.5   172    11.9   99999.0    0.00 
 149   11:40   0.42   59.7    32    4.0   174    11.3   99999.0    0.00 
 149   11:50   0.46   59.9    30    3.6   179    10.8   99999.0    0.00 
 149   12:00   0.85   61.8    28    5.4   164    13.1   99999.0    0.00 
 149   12:10   0.55   62.9    26    4.1   145    10.8   99999.0    0.00 
 149   12:20   0.41   60.9    27    5.2   165    16.7   99999.0    0.00 
 149   12:30   0.68   62.4    25    4.2   203     9.6   99999.0    0.00 
 149   12:40   0.15   61.1    26    4.4   156    11.3   99999.0    0.00 
 149   12:50   0.25   60.2    28    3.8   164    10.2   99999.0    0.00 
 149   13:00   0.70   61.8    28    6.4   166    15.5   99999.0    0.00 
 149   13:10   0.40   62.2    29    6.8   164    13.7   99999.0    0.00 
 149   13:20   0.17   58.6    39    3.3   158     9.6   99999.0    0.00 
 149   13:30   0.61   58.5    50    2.2    27     4.8   99999.0    0.00 
 149   13:40   0.55   62.1    28    3.9   155     8.4   99999.0    0.00 
 149   13:50   0.47   62.2    23    4.7   163    18.5   99999.0    0.00 
 149   14:00   0.41   61.7    20    5.2   165    14.3   99999.0    0.00 
 149   14:10   0.34   62.2    20    3.9   356    12.5   99999.0    0.00 
 149   14:20   0.23   63.0    20    3.7    74     6.6   99999.0    0.00 
 149   14:30   0.18   61.8    21    4.0    76     7.2   99999.0    0.00 
 149   14:40   0.20   59.5    28    4.6   127     9.6   99999.0    0.00 
 149   14:50   0.20   57.1    33    5.4   164    15.5   99999.0    0.00 
 149   15:00   0.18   56.2    36    3.4   142     6.6   99999.0    0.01 
 149   15:10   0.13   55.4    36    3.6   181    11.9   99999.0    0.00 
 149   15:20   0.10   55.2    35    2.3   106     6.6   99999.0    0.00 
 149   15:30   0.08   54.9    34    2.3   170     4.2   99999.0    0.00 
 149   15:40   0.08   54.9    33    2.1   112     4.2   99999.0    0.00 
 149   15:50   0.16   55.7    32    2.1   139     4.8   99999.0    0.00 
 149   16:00   0.18   57.2    28    4.0   160    13.1   99999.0    0.00 
 149   16:10   0.14   57.2    28    4.6   178    13.1   99999.0    0.00 
 149   16:20   0.12   55.6    32    4.2   161     9.6   99999.0    0.00 
 149   16:30   0.12   54.9    36    4.5   170    11.9   99999.0    0.00 
 149   16:40   0.14   54.4    37    4.5   161     8.7   99999.0    0.00 
 149   16:50   0.15   55.1    37    3.2   136     6.6   99999.0    0.00 
 149   17:00   0.17   55.4    36    5.1   151    12.5   99999.0    0.00 
 149   17:10   0.09   55.2    37    4.9   153    11.3   99999.0    0.00 
 149   17:20   0.07   54.8    35    5.4   168    10.2   99999.0    0.00 
 149   17:30   0.08   54.9    35    4.1   158    11.3   99999.0    0.00 
 149   17:40   0.06   55.3    34    3.6   139     7.8   99999.0    0.00 
 149   17:50   0.05   55.1    35    2.7   143     5.4   99999.0    0.00 
 149   18:00   0.04   55.2    34    2.1   144     7.2   99999.0    0.00 
 149   18:10   0.04   54.9    33    2.9   167     6.6   99999.0    0.00 
 149   18:20   0.02   54.6    33    2.9   171     7.2   99999.0    0.00 
 149   18:30   0.02   54.0    37    3.6   140     7.8   99999.0    0.00 
 149   18:40   0.01   52.1    48    4.7   160     9.0   99999.0    0.00 
 149   18:50   0.01   50.5    53    4.0   160     7.5   99999.0    0.00 
 149   19:00   0.01   49.8    56    3.5   160     8.4   99999.0    0.00 
 149   19:10   0.00   49.0    59    2.7   144     5.4   99999.0    0.00 
 149   19:20   0.00   48.2    60    2.4   159     4.2   99999.0    0.00 

Return to Conejos, Valles Caldera graphs page.


Western Regional Climate Center,wrcc@dri.edu